sensor_id;sensor_type;location;lat;lon;timestamp;P1;durP1;ratioP1;P2;durP2;ratioP2
10418;SDS011;5256;48.728;9.140;2023-01-15T00:00:56;0.40;;;0.40;;
10418;SDS011;5256;48.728;9.140;2023-01-15T00:03:22;0.50;;;0.50;;
10418;SDS011;5256;48.728;9.140;2023-01-15T00:05:48;0.50;;;0.50;;
10418;SDS011;5256;48.728;9.140;2023-01-15T00:08:13;0.47;;;0.47;;
10418;SDS011;5256;48.728;9.140;2023-01-15T00:10:39;0.53;;;0.53;;
10418;SDS011;5256;48.728;9.140;2023-01-15T00:13:04;0.50;;;0.50;;
10418;SDS011;5256;48.728;9.140;2023-01-15T00:15:30;0.50;;;0.50;;
10418;SDS011;5256;48.728;9.140;2023-01-15T00:17:56;0.40;;;0.40;;
10418;SDS011;5256;48.728;9.140;2023-01-15T00:20:21;0.40;;;0.40;;
10418;SDS011;5256;48.728;9.140;2023-01-15T00:22:47;0.40;;;0.40;;
10418;SDS011;5256;48.728;9.140;2023-01-15T00:25:12;0.40;;;0.40;;
10418;SDS011;5256;48.728;9.140;2023-01-15T00:28:13;0.40;;;0.40;;
10418;SDS011;5256;48.728;9.140;2023-01-15T00:30:40;0.50;;;0.50;;
10418;SDS011;5256;48.728;9.140;2023-01-15T00:33:06;0.40;;;0.40;;
10418;SDS011;5256;48.728;9.140;2023-01-15T00:35:32;0.50;;;0.50;;
10418;SDS011;5256;48.728;9.140;2023-01-15T00:37:58;0.50;;;0.50;;
10418;SDS011;5256;48.728;9.140;2023-01-15T00:40:24;0.40;;;0.40;;
10418;SDS011;5256;48.728;9.140;2023-01-15T00:42:49;0.50;;;0.50;;
10418;SDS011;5256;48.728;9.140;2023-01-15T00:45:15;0.40;;;0.40;;
10418;SDS011;5256;48.728;9.140;2023-01-15T00:47:41;0.30;;;0.30;;
10418;SDS011;5256;48.728;9.140;2023-01-15T00:50:10;0.50;;;0.50;;
10418;SDS011;5256;48.728;9.140;2023-01-15T00:52:37;0.40;;;0.40;;
10418;SDS011;5256;48.728;9.140;2023-01-15T00:55:03;0.50;;;0.50;;
10418;SDS011;5256;48.728;9.140;2023-01-15T00:57:30;0.60;;;0.60;;
10418;SDS011;5256;48.728;9.140;2023-01-15T00:59:55;0.50;;;0.50;;
10418;SDS011;5256;48.728;9.140;2023-01-15T01:02:21;0.50;;;0.50;;
10418;SDS011;5256;48.728;9.140;2023-01-15T01:04:46;0.40;;;0.40;;
10418;SDS011;5256;48.728;9.140;2023-01-15T01:07:12;0.50;;;0.50;;
10418;SDS011;5256;48.728;9.140;2023-01-15T01:09:37;0.70;;;0.70;;
10418;SDS011;5256;48.728;9.140;2023-01-15T01:12:03;0.50;;;0.50;;
10418;SDS011;5256;48.728;9.140;2023-01-15T01:14:29;0.40;;;0.40;;
10418;SDS011;5256;48.728;9.140;2023-01-15T01:16:55;0.50;;;0.50;;
10418;SDS011;5256;48.728;9.140;2023-01-15T01:19:21;0.40;;;0.40;;
10418;SDS011;5256;48.728;9.140;2023-01-15T01:21:49;0.47;;;0.47;;
10418;SDS011;5256;48.728;9.140;2023-01-15T01:24:17;0.43;;;0.43;;
10418;SDS011;5256;48.728;9.140;2023-01-15T01:26:45;0.40;;;0.40;;
10418;SDS011;5256;48.728;9.140;2023-01-15T01:29:12;0.47;;;0.47;;
10418;SDS011;5256;48.728;9.140;2023-01-15T01:31:42;0.40;;;0.40;;
10418;SDS011;5256;48.728;9.140;2023-01-15T01:34:08;0.60;;;0.60;;
10418;SDS011;5256;48.728;9.140;2023-01-15T01:36:36;0.50;;;0.50;;
10418;SDS011;5256;48.728;9.140;2023-01-15T01:39:03;0.60;;;0.60;;
10418;SDS011;5256;48.728;9.140;2023-01-15T01:41:29;0.60;;;0.60;;
10418;SDS011;5256;48.728;9.140;2023-01-15T01:43:56;0.50;;;0.50;;
10418;SDS011;5256;48.728;9.140;2023-01-15T01:46:26;0.57;;;0.57;;
10418;SDS011;5256;48.728;9.140;2023-01-15T01:48:54;0.40;;;0.40;;
10418;SDS011;5256;48.728;9.140;2023-01-15T01:51:28;0.50;;;0.50;;
10418;SDS011;5256;48.728;9.140;2023-01-15T01:53:59;0.40;;;0.40;;
10418;SDS011;5256;48.728;9.140;2023-01-15T01:56:25;0.40;;;0.40;;
10418;SDS011;5256;48.728;9.140;2023-01-15T01:58:52;0.60;;;0.60;;
10418;SDS011;5256;48.728;9.140;2023-01-15T02:01:19;0.50;;;0.50;;
10418;SDS011;5256;48.728;9.140;2023-01-15T02:03:47;0.40;;;0.40;;
10418;SDS011;5256;48.728;9.140;2023-01-15T02:06:13;0.40;;;0.40;;
10418;SDS011;5256;48.728;9.140;2023-01-15T02:08:40;0.40;;;0.40;;
10418;SDS011;5256;48.728;9.140;2023-01-15T02:11:06;0.50;;;0.50;;
10418;SDS011;5256;48.728;9.140;2023-01-15T02:13:40;0.50;;;0.50;;
10418;SDS011;5256;48.728;9.140;2023-01-15T02:25:06;0.40;;;0.40;;
10418;SDS011;5256;48.728;9.140;2023-01-15T02:27:46;0.50;;;0.50;;
10418;SDS011;5256;48.728;9.140;2023-01-15T02:30:17;0.40;;;0.40;;
10418;SDS011;5256;48.728;9.140;2023-01-15T02:32:57;0.40;;;0.40;;
10418;SDS011;5256;48.728;9.140;2023-01-15T02:38:09;0.50;;;0.50;;
10418;SDS011;5256;48.728;9.140;2023-01-15T02:40:38;0.50;;;0.50;;
10418;SDS011;5256;48.728;9.140;2023-01-15T02:43:06;0.40;;;0.40;;
10418;SDS011;5256;48.728;9.140;2023-01-15T02:45:34;0.40;;;0.40;;
10418;SDS011;5256;48.728;9.140;2023-01-15T02:48:07;0.40;;;0.40;;
10418;SDS011;5256;48.728;9.140;2023-01-15T02:50:37;0.50;;;0.50;;
10418;SDS011;5256;48.728;9.140;2023-01-15T02:53:08;0.40;;;0.40;;
10418;SDS011;5256;48.728;9.140;2023-01-15T02:55:38;0.43;;;0.43;;
10418;SDS011;5256;48.728;9.140;2023-01-15T02:58:08;0.40;;;0.40;;
10418;SDS011;5256;48.728;9.140;2023-01-15T03:00:39;0.43;;;0.43;;
10418;SDS011;5256;48.728;9.140;2023-01-15T03:03:25;0.50;;;0.50;;
10418;SDS011;5256;48.728;9.140;2023-01-15T03:06:08;0.40;;;0.40;;
10418;SDS011;5256;48.728;9.140;2023-01-15T03:08:41;0.40;;;0.40;;
10418;SDS011;5256;48.728;9.140;2023-01-15T03:11:08;0.40;;;0.40;;
10418;SDS011;5256;48.728;9.140;2023-01-15T03:13:50;0.50;;;0.50;;
10418;SDS011;5256;48.728;9.140;2023-01-15T03:16:46;0.43;;;0.43;;
10418;SDS011;5256;48.728;9.140;2023-01-15T03:19:20;0.63;;;0.63;;
10418;SDS011;5256;48.728;9.140;2023-01-15T03:22:06;0.47;;;0.47;;
10418;SDS011;5256;48.728;9.140;2023-01-15T03:24:39;0.50;;;0.50;;
10418;SDS011;5256;48.728;9.140;2023-01-15T03:27:06;0.40;;;0.40;;
10418;SDS011;5256;48.728;9.140;2023-01-15T03:29:37;0.50;;;0.50;;
10418;SDS011;5256;48.728;9.140;2023-01-15T03:32:05;0.40;;;0.40;;
10418;SDS011;5256;48.728;9.140;2023-01-15T03:35:04;0.50;;;0.50;;
10418;SDS011;5256;48.728;9.140;2023-01-15T03:37:24;0.50;;;0.50;;
10418;SDS011;5256;48.728;9.140;2023-01-15T03:39:52;0.50;;;0.50;;
10418;SDS011;5256;48.728;9.140;2023-01-15T03:42:25;0.40;;;0.40;;
10418;SDS011;5256;48.728;9.140;2023-01-15T03:45:17;0.40;;;0.40;;
10418;SDS011;5256;48.728;9.140;2023-01-15T03:47:55;0.40;;;0.40;;
10418;SDS011;5256;48.728;9.140;2023-01-15T03:50:38;0.47;;;0.47;;
10418;SDS011;5256;48.728;9.140;2023-01-15T03:53:32;0.33;;;0.33;;
10418;SDS011;5256;48.728;9.140;2023-01-15T03:56:31;0.30;;;0.30;;
10418;SDS011;5256;48.728;9.140;2023-01-15T03:59:12;0.30;;;0.30;;
10418;SDS011;5256;48.728;9.140;2023-01-15T04:01:42;0.40;;;0.40;;
10418;SDS011;5256;48.728;9.140;2023-01-15T04:04:10;0.30;;;0.30;;
10418;SDS011;5256;48.728;9.140;2023-01-15T04:06:38;0.40;;;0.40;;
10418;SDS011;5256;48.728;9.140;2023-01-15T04:09:06;0.30;;;0.30;;
10418;SDS011;5256;48.728;9.140;2023-01-15T04:11:34;0.40;;;0.40;;
10418;SDS011;5256;48.728;9.140;2023-01-15T04:14:00;0.40;;;0.40;;
10418;SDS011;5256;48.728;9.140;2023-01-15T04:16:26;0.30;;;0.30;;
10418;SDS011;5256;48.728;9.140;2023-01-15T04:18:53;0.30;;;0.30;;
10418;SDS011;5256;48.728;9.140;2023-01-15T04:21:19;0.40;;;0.40;;
10418;SDS011;5256;48.728;9.140;2023-01-15T04:23:45;0.43;;;0.43;;
10418;SDS011;5256;48.728;9.140;2023-01-15T04:26:11;0.40;;;0.40;;
10418;SDS011;5256;48.728;9.140;2023-01-15T04:28:37;0.40;;;0.40;;
10418;SDS011;5256;48.728;9.140;2023-01-15T04:31:03;0.40;;;0.40;;
10418;SDS011;5256;48.728;9.140;2023-01-15T04:33:28;0.40;;;0.40;;
10418;SDS011;5256;48.728;9.140;2023-01-15T04:35:57;0.47;;;0.47;;
10418;SDS011;5256;48.728;9.140;2023-01-15T04:38:24;0.50;;;0.50;;
10418;SDS011;5256;48.728;9.140;2023-01-15T04:40:49;0.47;;;0.47;;
10418;SDS011;5256;48.728;9.140;2023-01-15T04:43:33;0.40;;;0.40;;
10418;SDS011;5256;48.728;9.140;2023-01-15T04:46:19;0.40;;;0.40;;
10418;SDS011;5256;48.728;9.140;2023-01-15T04:48:49;0.40;;;0.40;;
10418;SDS011;5256;48.728;9.140;2023-01-15T04:51:15;0.40;;;0.40;;
10418;SDS011;5256;48.728;9.140;2023-01-15T04:53:41;0.40;;;0.40;;
10418;SDS011;5256;48.728;9.140;2023-01-15T04:56:06;0.40;;;0.40;;
10418;SDS011;5256;48.728;9.140;2023-01-15T04:58:32;0.40;;;0.40;;
10418;SDS011;5256;48.728;9.140;2023-01-15T05:00:59;0.40;;;0.40;;
10418;SDS011;5256;48.728;9.140;2023-01-15T05:03:25;0.30;;;0.30;;
10418;SDS011;5256;48.728;9.140;2023-01-15T05:05:51;0.30;;;0.30;;
10418;SDS011;5256;48.728;9.140;2023-01-15T05:08:17;0.40;;;0.40;;
10418;SDS011;5256;48.728;9.140;2023-01-15T05:10:42;0.40;;;0.40;;
10418;SDS011;5256;48.728;9.140;2023-01-15T05:13:08;0.40;;;0.40;;
10418;SDS011;5256;48.728;9.140;2023-01-15T05:15:34;0.60;;;0.60;;
10418;SDS011;5256;48.728;9.140;2023-01-15T05:17:59;0.30;;;0.30;;
10418;SDS011;5256;48.728;9.140;2023-01-15T05:20:25;0.40;;;0.40;;
10418;SDS011;5256;48.728;9.140;2023-01-15T05:22:50;0.33;;;0.33;;
10418;SDS011;5256;48.728;9.140;2023-01-15T05:25:16;0.40;;;0.40;;
10418;SDS011;5256;48.728;9.140;2023-01-15T05:27:41;0.40;;;0.40;;
10418;SDS011;5256;48.728;9.140;2023-01-15T05:30:07;0.40;;;0.40;;
10418;SDS011;5256;48.728;9.140;2023-01-15T05:32:33;0.50;;;0.50;;
10418;SDS011;5256;48.728;9.140;2023-01-15T05:34:59;0.30;;;0.30;;
10418;SDS011;5256;48.728;9.140;2023-01-15T05:37:24;0.50;;;0.50;;
10418;SDS011;5256;48.728;9.140;2023-01-15T05:39:50;0.40;;;0.40;;
10418;SDS011;5256;48.728;9.140;2023-01-15T05:42:15;0.40;;;0.40;;
10418;SDS011;5256;48.728;9.140;2023-01-15T05:44:41;0.40;;;0.40;;
10418;SDS011;5256;48.728;9.140;2023-01-15T05:47:07;0.50;;;0.50;;
10418;SDS011;5256;48.728;9.140;2023-01-15T05:49:34;0.60;;;0.60;;
10418;SDS011;5256;48.728;9.140;2023-01-15T05:52:00;0.50;;;0.50;;
10418;SDS011;5256;48.728;9.140;2023-01-15T05:54:30;0.50;;;0.50;;
10418;SDS011;5256;48.728;9.140;2023-01-15T05:56:57;0.50;;;0.50;;
10418;SDS011;5256;48.728;9.140;2023-01-15T05:59:23;0.40;;;0.40;;
10418;SDS011;5256;48.728;9.140;2023-01-15T06:01:50;0.50;;;0.50;;
10418;SDS011;5256;48.728;9.140;2023-01-15T06:04:17;0.50;;;0.50;;
10418;SDS011;5256;48.728;9.140;2023-01-15T06:06:45;0.40;;;0.40;;
10418;SDS011;5256;48.728;9.140;2023-01-15T06:09:12;0.40;;;0.40;;
10418;SDS011;5256;48.728;9.140;2023-01-15T06:11:38;0.40;;;0.40;;
10418;SDS011;5256;48.728;9.140;2023-01-15T06:14:04;0.50;;;0.50;;
10418;SDS011;5256;48.728;9.140;2023-01-15T06:16:31;0.50;;;0.50;;
10418;SDS011;5256;48.728;9.140;2023-01-15T06:19:00;0.50;;;0.50;;
10418;SDS011;5256;48.728;9.140;2023-01-15T06:21:29;0.50;;;0.50;;
10418;SDS011;5256;48.728;9.140;2023-01-15T06:23:55;0.50;;;0.50;;
10418;SDS011;5256;48.728;9.140;2023-01-15T06:26:21;0.50;;;0.50;;
10418;SDS011;5256;48.728;9.140;2023-01-15T06:28:46;0.50;;;0.50;;
10418;SDS011;5256;48.728;9.140;2023-01-15T06:31:14;0.60;;;0.60;;
10418;SDS011;5256;48.728;9.140;2023-01-15T06:33:41;0.60;;;0.60;;
10418;SDS011;5256;48.728;9.140;2023-01-15T06:36:17;0.50;;;0.50;;
10418;SDS011;5256;48.728;9.140;2023-01-15T06:38:48;0.50;;;0.50;;
10418;SDS011;5256;48.728;9.140;2023-01-15T06:41:17;0.47;;;0.47;;
10418;SDS011;5256;48.728;9.140;2023-01-15T06:44:07;0.60;;;0.60;;
10418;SDS011;5256;48.728;9.140;2023-01-15T06:46:55;0.50;;;0.50;;
10418;SDS011;5256;48.728;9.140;2023-01-15T06:49:39;0.60;;;0.60;;
10418;SDS011;5256;48.728;9.140;2023-01-15T06:52:04;0.60;;;0.60;;
10418;SDS011;5256;48.728;9.140;2023-01-15T06:54:30;0.60;;;0.60;;
10418;SDS011;5256;48.728;9.140;2023-01-15T06:56:57;0.50;;;0.50;;
10418;SDS011;5256;48.728;9.140;2023-01-15T06:59:22;0.70;;;0.70;;
10418;SDS011;5256;48.728;9.140;2023-01-15T07:01:48;0.60;;;0.60;;
10418;SDS011;5256;48.728;9.140;2023-01-15T07:04:13;0.53;;;0.53;;
10418;SDS011;5256;48.728;9.140;2023-01-15T07:06:39;0.50;;;0.50;;
10418;SDS011;5256;48.728;9.140;2023-01-15T07:09:05;0.60;;;0.60;;
10418;SDS011;5256;48.728;9.140;2023-01-15T07:11:31;0.60;;;0.60;;
10418;SDS011;5256;48.728;9.140;2023-01-15T07:13:56;0.60;;;0.60;;
10418;SDS011;5256;48.728;9.140;2023-01-15T07:16:32;0.60;;;0.60;;
10418;SDS011;5256;48.728;9.140;2023-01-15T07:18:58;0.50;;;0.50;;
10418;SDS011;5256;48.728;9.140;2023-01-15T07:21:23;0.50;;;0.50;;
10418;SDS011;5256;48.728;9.140;2023-01-15T07:23:49;0.60;;;0.60;;
10418;SDS011;5256;48.728;9.140;2023-01-15T07:26:15;0.60;;;0.60;;
10418;SDS011;5256;48.728;9.140;2023-01-15T07:28:40;0.53;;;0.53;;
10418;SDS011;5256;48.728;9.140;2023-01-15T07:31:06;0.50;;;0.50;;
10418;SDS011;5256;48.728;9.140;2023-01-15T07:33:31;0.50;;;0.50;;
10418;SDS011;5256;48.728;9.140;2023-01-15T07:36:00;0.70;;;0.70;;
10418;SDS011;5256;48.728;9.140;2023-01-15T07:38:26;0.60;;;0.60;;
10418;SDS011;5256;48.728;9.140;2023-01-15T07:40:54;0.60;;;0.60;;
10418;SDS011;5256;48.728;9.140;2023-01-15T07:43:39;0.70;;;0.70;;
10418;SDS011;5256;48.728;9.140;2023-01-15T07:46:23;0.60;;;0.60;;
10418;SDS011;5256;48.728;9.140;2023-01-15T07:49:07;0.60;;;0.60;;
10418;SDS011;5256;48.728;9.140;2023-01-15T07:51:52;0.60;;;0.60;;
10418;SDS011;5256;48.728;9.140;2023-01-15T07:54:18;0.60;;;0.60;;
10418;SDS011;5256;48.728;9.140;2023-01-15T07:56:44;0.53;;;0.53;;
10418;SDS011;5256;48.728;9.140;2023-01-15T07:59:09;0.50;;;0.50;;
10418;SDS011;5256;48.728;9.140;2023-01-15T08:01:35;0.60;;;0.60;;
10418;SDS011;5256;48.728;9.140;2023-01-15T08:04:00;0.50;;;0.50;;
10418;SDS011;5256;48.728;9.140;2023-01-15T08:06:26;0.50;;;0.50;;
10418;SDS011;5256;48.728;9.140;2023-01-15T08:08:51;0.50;;;0.50;;
10418;SDS011;5256;48.728;9.140;2023-01-15T08:11:17;0.50;;;0.50;;
10418;SDS011;5256;48.728;9.140;2023-01-15T08:14:01;0.50;;;0.50;;
10418;SDS011;5256;48.728;9.140;2023-01-15T08:16:45;0.60;;;0.60;;
10418;SDS011;5256;48.728;9.140;2023-01-15T08:19:10;0.60;;;0.60;;
10418;SDS011;5256;48.728;9.140;2023-01-15T08:21:36;0.50;;;0.50;;
10418;SDS011;5256;48.728;9.140;2023-01-15T08:24:01;0.60;;;0.60;;
10418;SDS011;5256;48.728;9.140;2023-01-15T08:26:27;0.50;;;0.50;;
10418;SDS011;5256;48.728;9.140;2023-01-15T08:28:53;0.50;;;0.50;;
10418;SDS011;5256;48.728;9.140;2023-01-15T08:31:18;0.60;;;0.60;;
10418;SDS011;5256;48.728;9.140;2023-01-15T08:33:44;0.50;;;0.50;;
10418;SDS011;5256;48.728;9.140;2023-01-15T08:36:09;0.60;;;0.60;;
10418;SDS011;5256;48.728;9.140;2023-01-15T08:38:35;0.60;;;0.60;;
10418;SDS011;5256;48.728;9.140;2023-01-15T08:41:00;0.60;;;0.60;;
10418;SDS011;5256;48.728;9.140;2023-01-15T08:43:28;0.60;;;0.60;;
10418;SDS011;5256;48.728;9.140;2023-01-15T08:45:55;0.60;;;0.60;;
10418;SDS011;5256;48.728;9.140;2023-01-15T08:48:22;0.60;;;0.60;;
10418;SDS011;5256;48.728;9.140;2023-01-15T08:50:48;0.60;;;0.60;;
10418;SDS011;5256;48.728;9.140;2023-01-15T08:53:15;0.60;;;0.60;;
10418;SDS011;5256;48.728;9.140;2023-01-15T08:55:41;0.60;;;0.60;;
10418;SDS011;5256;48.728;9.140;2023-01-15T08:58:06;0.60;;;0.60;;
10418;SDS011;5256;48.728;9.140;2023-01-15T09:00:32;0.50;;;0.50;;
10418;SDS011;5256;48.728;9.140;2023-01-15T09:02:58;0.50;;;0.50;;
10418;SDS011;5256;48.728;9.140;2023-01-15T09:05:24;0.53;;;0.53;;
10418;SDS011;5256;48.728;9.140;2023-01-15T09:07:52;0.50;;;0.50;;
10418;SDS011;5256;48.728;9.140;2023-01-15T09:10:17;0.60;;;0.60;;
10418;SDS011;5256;48.728;9.140;2023-01-15T09:12:43;0.60;;;0.60;;
10418;SDS011;5256;48.728;9.140;2023-01-15T09:15:09;0.60;;;0.60;;
10418;SDS011;5256;48.728;9.140;2023-01-15T09:17:34;0.50;;;0.50;;
10418;SDS011;5256;48.728;9.140;2023-01-15T09:20:07;0.60;;;0.60;;
10418;SDS011;5256;48.728;9.140;2023-01-15T09:22:36;0.60;;;0.60;;
10418;SDS011;5256;48.728;9.140;2023-01-15T09:25:02;0.60;;;0.60;;
10418;SDS011;5256;48.728;9.140;2023-01-15T09:27:28;0.60;;;0.60;;
10418;SDS011;5256;48.728;9.140;2023-01-15T09:29:54;0.57;;;0.57;;
10418;SDS011;5256;48.728;9.140;2023-01-15T09:32:20;0.50;;;0.50;;
10418;SDS011;5256;48.728;9.140;2023-01-15T09:34:46;0.50;;;0.50;;
10418;SDS011;5256;48.728;9.140;2023-01-15T09:37:11;0.63;;;0.63;;
10418;SDS011;5256;48.728;9.140;2023-01-15T09:39:37;0.50;;;0.50;;
10418;SDS011;5256;48.728;9.140;2023-01-15T09:44:54;0.60;;;0.60;;
10418;SDS011;5256;48.728;9.140;2023-01-15T09:50:17;0.50;;;0.50;;
10418;SDS011;5256;48.728;9.140;2023-01-15T09:53:04;0.60;;;0.60;;
10418;SDS011;5256;48.728;9.140;2023-01-15T09:55:44;0.60;;;0.60;;
10418;SDS011;5256;48.728;9.140;2023-01-15T09:58:12;0.60;;;0.60;;
10418;SDS011;5256;48.728;9.140;2023-01-15T10:00:43;0.50;;;0.50;;
10418;SDS011;5256;48.728;9.140;2023-01-15T10:03:27;0.50;;;0.50;;
10418;SDS011;5256;48.728;9.140;2023-01-15T10:08:37;0.60;;;0.60;;
10418;SDS011;5256;48.728;9.140;2023-01-15T10:13:47;0.70;;;0.70;;
10418;SDS011;5256;48.728;9.140;2023-01-15T10:16:20;0.60;;;0.60;;
10418;SDS011;5256;48.728;9.140;2023-01-15T10:18:47;0.60;;;0.60;;
10418;SDS011;5256;48.728;9.140;2023-01-15T10:21:25;0.60;;;0.60;;
10418;SDS011;5256;48.728;9.140;2023-01-15T10:24:14;0.60;;;0.60;;
10418;SDS011;5256;48.728;9.140;2023-01-15T10:26:50;0.70;;;0.70;;
10418;SDS011;5256;48.728;9.140;2023-01-15T10:37:46;0.60;;;0.60;;
10418;SDS011;5256;48.728;9.140;2023-01-15T10:42:59;0.57;;;0.57;;
10418;SDS011;5256;48.728;9.140;2023-01-15T10:46:02;0.60;;;0.60;;
10418;SDS011;5256;48.728;9.140;2023-01-15T10:48:37;0.60;;;0.60;;
10418;SDS011;5256;48.728;9.140;2023-01-15T10:51:14;0.50;;;0.50;;
10418;SDS011;5256;48.728;9.140;2023-01-15T11:01:33;0.60;;;0.60;;
10418;SDS011;5256;48.728;9.140;2023-01-15T11:03:58;0.50;;;0.50;;
10418;SDS011;5256;48.728;9.140;2023-01-15T11:06:24;0.60;;;0.60;;
10418;SDS011;5256;48.728;9.140;2023-01-15T11:08:51;0.60;;;0.60;;
10418;SDS011;5256;48.728;9.140;2023-01-15T11:11:34;0.60;;;0.60;;
10418;SDS011;5256;48.728;9.140;2023-01-15T11:17:24;0.60;;;0.60;;
10418;SDS011;5256;48.728;9.140;2023-01-15T11:20:33;0.63;;;0.63;;
10418;SDS011;5256;48.728;9.140;2023-01-15T11:23:08;0.60;;;0.60;;
10418;SDS011;5256;48.728;9.140;2023-01-15T11:25:36;0.60;;;0.60;;
10418;SDS011;5256;48.728;9.140;2023-01-15T11:28:08;0.60;;;0.60;;
10418;SDS011;5256;48.728;9.140;2023-01-15T11:30:39;0.60;;;0.60;;
10418;SDS011;5256;48.728;9.140;2023-01-15T11:33:17;0.70;;;0.70;;
10418;SDS011;5256;48.728;9.140;2023-01-15T11:35:50;0.60;;;0.60;;
10418;SDS011;5256;48.728;9.140;2023-01-15T11:38:21;0.70;;;0.70;;
10418;SDS011;5256;48.728;9.140;2023-01-15T11:40:51;0.70;;;0.70;;
10418;SDS011;5256;48.728;9.140;2023-01-15T11:43:19;0.70;;;0.70;;
10418;SDS011;5256;48.728;9.140;2023-01-15T11:46:27;0.80;;;0.80;;
10418;SDS011;5256;48.728;9.140;2023-01-15T11:49:14;0.60;;;0.60;;
10418;SDS011;5256;48.728;9.140;2023-01-15T11:52:00;0.70;;;0.70;;
10418;SDS011;5256;48.728;9.140;2023-01-15T11:54:27;0.70;;;0.70;;
10418;SDS011;5256;48.728;9.140;2023-01-15T11:56:54;0.70;;;0.70;;
10418;SDS011;5256;48.728;9.140;2023-01-15T11:59:20;0.70;;;0.70;;
10418;SDS011;5256;48.728;9.140;2023-01-15T12:02:20;0.70;;;0.70;;
10418;SDS011;5256;48.728;9.140;2023-01-15T12:04:48;0.40;;;0.40;;
10418;SDS011;5256;48.728;9.140;2023-01-15T12:07:20;0.60;;;0.60;;
10418;SDS011;5256;48.728;9.140;2023-01-15T12:28:56;0.70;;;0.70;;
10418;SDS011;5256;48.728;9.140;2023-01-15T12:37:45;0.60;;;0.60;;
10418;SDS011;5256;48.728;9.140;2023-01-15T12:40:18;0.60;;;0.60;;
10418;SDS011;5256;48.728;9.140;2023-01-15T12:42:48;0.70;;;0.70;;
10418;SDS011;5256;48.728;9.140;2023-01-15T12:45:46;0.60;;;0.60;;
10418;SDS011;5256;48.728;9.140;2023-01-15T12:50:55;0.70;;;0.70;;
10418;SDS011;5256;48.728;9.140;2023-01-15T12:59:17;0.70;;;0.70;;
10418;SDS011;5256;48.728;9.140;2023-01-15T13:02:14;0.60;;;0.60;;
10418;SDS011;5256;48.728;9.140;2023-01-15T13:05:12;0.83;;;0.83;;
10418;SDS011;5256;48.728;9.140;2023-01-15T13:07:57;0.70;;;0.70;;
10418;SDS011;5256;48.728;9.140;2023-01-15T13:10:28;0.70;;;0.70;;
10418;SDS011;5256;48.728;9.140;2023-01-15T13:13:01;0.70;;;0.70;;
10418;SDS011;5256;48.728;9.140;2023-01-15T13:18:44;0.80;;;0.80;;
10418;SDS011;5256;48.728;9.140;2023-01-15T13:21:37;0.60;;;0.60;;
10418;SDS011;5256;48.728;9.140;2023-01-15T13:27:16;0.70;;;0.70;;
10418;SDS011;5256;48.728;9.140;2023-01-15T13:32:51;0.60;;;0.60;;
10418;SDS011;5256;48.728;9.140;2023-01-15T13:37:58;0.80;;;0.80;;
10418;SDS011;5256;48.728;9.140;2023-01-15T13:42:53;0.70;;;0.70;;
10418;SDS011;5256;48.728;9.140;2023-01-15T13:48:14;0.70;;;0.70;;
10418;SDS011;5256;48.728;9.140;2023-01-15T13:50:52;0.70;;;0.70;;
10418;SDS011;5256;48.728;9.140;2023-01-15T13:54:08;0.60;;;0.60;;
10418;SDS011;5256;48.728;9.140;2023-01-15T13:56:13;0.70;;;0.70;;
10418;SDS011;5256;48.728;9.140;2023-01-15T13:59:01;0.60;;;0.60;;
10418;SDS011;5256;48.728;9.140;2023-01-15T14:03:59;0.70;;;0.70;;
10418;SDS011;5256;48.728;9.140;2023-01-15T14:06:48;0.80;;;0.80;;
10418;SDS011;5256;48.728;9.140;2023-01-15T14:12:12;0.73;;;0.73;;
10418;SDS011;5256;48.728;9.140;2023-01-15T14:23:10;0.70;;;0.70;;
10418;SDS011;5256;48.728;9.140;2023-01-15T14:28:33;0.70;;;0.70;;
10418;SDS011;5256;48.728;9.140;2023-01-15T14:34:16;0.70;;;0.70;;
10418;SDS011;5256;48.728;9.140;2023-01-15T14:42:03;0.60;;;0.60;;
10418;SDS011;5256;48.728;9.140;2023-01-15T14:47:46;0.63;;;0.63;;
10418;SDS011;5256;48.728;9.140;2023-01-15T14:50:21;0.60;;;0.60;;
10418;SDS011;5256;48.728;9.140;2023-01-15T14:53:05;0.70;;;0.70;;
10418;SDS011;5256;48.728;9.140;2023-01-15T15:00:54;0.63;;;0.63;;
10418;SDS011;5256;48.728;9.140;2023-01-15T15:03:27;0.70;;;0.70;;
10418;SDS011;5256;48.728;9.140;2023-01-15T15:05:59;0.63;;;0.63;;
10418;SDS011;5256;48.728;9.140;2023-01-15T15:08:26;0.70;;;0.70;;
10418;SDS011;5256;48.728;9.140;2023-01-15T15:10:56;0.63;;;0.63;;
10418;SDS011;5256;48.728;9.140;2023-01-15T15:16:17;0.60;;;0.60;;
10418;SDS011;5256;48.728;9.140;2023-01-15T15:18:56;0.63;;;0.63;;
10418;SDS011;5256;48.728;9.140;2023-01-15T15:21:27;0.80;;;0.80;;
10418;SDS011;5256;48.728;9.140;2023-01-15T15:26:35;0.60;;;0.60;;
10418;SDS011;5256;48.728;9.140;2023-01-15T15:31:35;0.70;;;0.70;;
10418;SDS011;5256;48.728;9.140;2023-01-15T15:34:03;0.77;;;0.77;;
10418;SDS011;5256;48.728;9.140;2023-01-15T15:36:38;0.60;;;0.60;;
10418;SDS011;5256;48.728;9.140;2023-01-15T15:39:14;0.70;;;0.70;;
10418;SDS011;5256;48.728;9.140;2023-01-15T15:41:43;0.77;;;0.77;;
10418;SDS011;5256;48.728;9.140;2023-01-15T15:44:33;0.70;;;0.70;;
10418;SDS011;5256;48.728;9.140;2023-01-15T15:47:24;0.70;;;0.70;;
10418;SDS011;5256;48.728;9.140;2023-01-15T15:50:22;0.70;;;0.70;;
10418;SDS011;5256;48.728;9.140;2023-01-15T15:52:53;0.67;;;0.67;;
10418;SDS011;5256;48.728;9.140;2023-01-15T15:55:20;0.70;;;0.70;;
10418;SDS011;5256;48.728;9.140;2023-01-15T15:57:48;0.70;;;0.70;;
10418;SDS011;5256;48.728;9.140;2023-01-15T16:00:41;0.60;;;0.60;;
10418;SDS011;5256;48.728;9.140;2023-01-15T16:03:16;0.70;;;0.70;;
10418;SDS011;5256;48.728;9.140;2023-01-15T16:05:53;0.70;;;0.70;;
10418;SDS011;5256;48.728;9.140;2023-01-15T16:08:21;0.80;;;0.80;;
10418;SDS011;5256;48.728;9.140;2023-01-15T16:10:48;0.60;;;0.60;;
10418;SDS011;5256;48.728;9.140;2023-01-15T16:13:21;0.60;;;0.60;;
10418;SDS011;5256;48.728;9.140;2023-01-15T16:15:50;0.60;;;0.60;;
10418;SDS011;5256;48.728;9.140;2023-01-15T16:20:52;0.70;;;0.70;;
10418;SDS011;5256;48.728;9.140;2023-01-15T16:23:28;0.80;;;0.80;;
10418;SDS011;5256;48.728;9.140;2023-01-15T16:28:23;0.70;;;0.70;;
10418;SDS011;5256;48.728;9.140;2023-01-15T16:30:55;0.80;;;0.80;;
10418;SDS011;5256;48.728;9.140;2023-01-15T16:33:26;0.70;;;0.70;;
10418;SDS011;5256;48.728;9.140;2023-01-15T16:35:56;0.80;;;0.80;;
10418;SDS011;5256;48.728;9.140;2023-01-15T16:38:28;0.70;;;0.70;;
10418;SDS011;5256;48.728;9.140;2023-01-15T16:40:55;0.70;;;0.70;;
10418;SDS011;5256;48.728;9.140;2023-01-15T16:43:22;0.70;;;0.70;;
10418;SDS011;5256;48.728;9.140;2023-01-15T16:48:29;0.70;;;0.70;;
10418;SDS011;5256;48.728;9.140;2023-01-15T16:51:21;0.70;;;0.70;;
10418;SDS011;5256;48.728;9.140;2023-01-15T16:53:52;0.90;;;0.90;;
10418;SDS011;5256;48.728;9.140;2023-01-15T16:58:49;0.73;;;0.73;;
10418;SDS011;5256;48.728;9.140;2023-01-15T17:06:58;0.80;;;0.80;;
10418;SDS011;5256;48.728;9.140;2023-01-15T17:09:26;0.80;;;0.80;;
10418;SDS011;5256;48.728;9.140;2023-01-15T17:11:54;0.70;;;0.70;;
10418;SDS011;5256;48.728;9.140;2023-01-15T17:14:24;0.70;;;0.70;;
10418;SDS011;5256;48.728;9.140;2023-01-15T17:19:54;0.70;;;0.70;;
10418;SDS011;5256;48.728;9.140;2023-01-15T17:22:27;0.70;;;0.70;;
10418;SDS011;5256;48.728;9.140;2023-01-15T17:24:55;0.80;;;0.80;;
10418;SDS011;5256;48.728;9.140;2023-01-15T17:27:22;0.70;;;0.70;;
10418;SDS011;5256;48.728;9.140;2023-01-15T17:29:49;0.80;;;0.80;;
10418;SDS011;5256;48.728;9.140;2023-01-15T17:32:36;0.70;;;0.70;;
10418;SDS011;5256;48.728;9.140;2023-01-15T17:35:03;0.70;;;0.70;;
10418;SDS011;5256;48.728;9.140;2023-01-15T17:37:29;0.80;;;0.80;;
10418;SDS011;5256;48.728;9.140;2023-01-15T17:39:56;0.70;;;0.70;;
10418;SDS011;5256;48.728;9.140;2023-01-15T17:42:21;0.70;;;0.70;;
10418;SDS011;5256;48.728;9.140;2023-01-15T17:44:47;0.70;;;0.70;;
10418;SDS011;5256;48.728;9.140;2023-01-15T17:47:12;0.70;;;0.70;;
10418;SDS011;5256;48.728;9.140;2023-01-15T17:49:38;0.70;;;0.70;;
10418;SDS011;5256;48.728;9.140;2023-01-15T17:52:05;0.70;;;0.70;;
10418;SDS011;5256;48.728;9.140;2023-01-15T17:54:34;0.70;;;0.70;;
10418;SDS011;5256;48.728;9.140;2023-01-15T17:57:18;0.80;;;0.80;;
10418;SDS011;5256;48.728;9.140;2023-01-15T18:00:02;0.70;;;0.70;;